Time;durP1;ratioP1;P1;durP2;ratioP2;P2;SDS_P1;SDS_P2;PMS_P1;PMS_P2;Temp;Humidity;BMP_temperature;BMP_pressure;BME280_temperature;BME280_humidity;BME280_pressure;Samples;Min_cycle;Max_cycle;Signal;HPM_P1;HPM_P2
2022/06/15 00:01:25;;;;;;;2.95;1.80;;;;;;;18.54;44.83;95008.34;4204080;28;20449;-53
2022/06/15 00:03:30;;;;;;;5.10;2.20;;;;;;;18.41;44.47;95007.31;4206030;28;20470;-50
2022/06/15 00:05:32;;;;;;;2.15;1.60;;;;;;;18.39;44.47;95011.16;4195928;28;20131;-54
2022/06/15 00:07:33;;;;;;;4.13;1.88;;;;;;;18.45;44.51;95014.84;4208498;28;20419;-53
2022/06/15 00:09:35;;;;;;;4.53;1.45;;;;;;;18.44;44.35;95014.03;4208398;28;20048;-53
2022/06/15 00:11:40;;;;;;;2.97;1.98;;;;;;;18.47;44.15;95003.00;4199518;28;20045;-56
2022/06/15 00:13:44;;;;;;;2.88;1.80;;;;;;;18.47;44.11;95002.22;4205454;28;20546;-57
2022/06/15 00:15:48;;;;;;;3.35;1.80;;;;;;;18.50;44.18;95004.44;4208581;28;20504;-58
2022/06/15 00:17:49;;;;;;;3.70;1.80;;;;;;;18.53;44.47;95004.06;4208383;28;20056;-54
2022/06/15 00:19:51;;;;;;;4.13;1.90;;;;;;;18.48;44.32;95002.00;4210179;28;20082;-55
2022/06/15 00:21:53;;;;;;;7.15;2.03;;;;;;;18.40;44.17;95002.19;4189997;28;20040;-56
2022/06/15 00:23:56;;;;;;;4.70;1.90;;;;;;;18.36;44.80;94990.34;4207717;28;20139;-56
2022/06/15 00:25:57;;;;;;;2.85;1.80;;;;;;;18.37;44.61;94989.34;4209652;28;20391;-57
2022/06/15 00:27:59;;;;;;;3.28;1.90;;;;;;;18.35;44.37;94981.56;4207911;28;20048;-56
2022/06/15 00:30:02;;;;;;;2.88;1.75;;;;;;;18.34;44.27;94987.88;4202081;28;20153;-54
2022/06/15 00:32:05;;;;;;;4.30;1.70;;;;;;;18.37;44.42;94995.47;4199430;28;20098;-56
2022/06/15 00:34:07;;;;;;;4.23;1.83;;;;;;;18.36;43.88;94991.16;4205550;28;20459;-55
2022/06/15 00:36:12;;;;;;;3.97;2.03;;;;;;;18.32;43.86;94994.41;4196610;28;20288;-55
2022/06/15 00:38:14;;;;;;;3.05;1.83;;;;;;;18.34;43.72;94995.03;4208539;28;20077;-57
2022/06/15 00:40:15;;;;;;;3.00;1.63;;;;;;;18.33;43.97;94983.63;4203845;28;20089;-54
2022/06/15 00:42:19;;;;;;;2.53;1.63;;;;;;;18.33;44.14;94996.06;4208581;28;20078;-55
2022/06/15 00:44:21;;;;;;;4.28;1.95;;;;;;;18.30;44.02;94991.94;4207780;28;20052;-55
2022/06/15 00:46:38;;;;;;;5.80;2.10;;;;;;;18.34;43.93;94993.19;4205980;28;20047;-56
2022/06/15 00:48:42;;;;;;;3.53;1.80;;;;;;;18.32;44.02;94995.22;4200765;28;20056;-56
2022/06/15 00:50:43;;;;;;;5.80;1.90;;;;;;;18.33;43.85;94988.91;4187316;28;20505;-55
2022/06/15 00:53:05;;;;;;;3.47;1.90;;;;;;;18.30;43.90;94989.31;4220359;28;20517;-54
2022/06/15 00:55:17;;;;;;;4.30;1.80;;;;;;;18.21;43.68;94988.66;4198974;28;20052;-56
2022/06/15 00:57:19;;;;;;;4.32;2.13;;;;;;;18.24;43.75;94994.59;4226649;28;20113;-55
2022/06/15 00:59:29;;;;;;;2.35;1.80;;;;;;;18.17;43.68;94997.22;4193185;28;20059;-57
2022/06/15 01:01:30;;;;;;;4.07;1.70;;;;;;;18.22;43.62;94994.81;4206761;28;20106;-56
2022/06/15 01:03:33;;;;;;;5.40;2.08;;;;;;;18.20;43.59;95008.25;4199593;28;20044;-54
2022/06/15 01:06:12;;;;;;;5.13;1.90;;;;;;;18.17;43.78;95005.16;4201269;28;20048;-54
2022/06/15 01:08:21;;;;;;;5.45;1.70;;;;;;;18.10;43.67;95013.09;4191565;28;20517;-56
2022/06/15 01:10:31;;;;;;;4.50;1.80;;;;;;;18.08;43.83;95003.72;4179857;28;20621;-55
2022/06/15 01:13:15;;;;;;;7.82;1.70;;;;;;;18.11;43.57;95011.25;4202915;28;20114;-57
2022/06/15 01:15:33;;;;;;;2.50;1.67;;;;;;;18.05;43.59;95004.09;4209182;28;20056;-55
2022/06/15 01:17:41;;;;;;;3.92;2.00;;;;;;;18.06;43.31;95005.75;4193225;28;20082;-54
2022/06/15 01:19:43;;;;;;;3.35;1.65;;;;;;;18.05;43.12;95014.69;4192655;28;20052;-54
2022/06/15 01:21:51;;;;;;;3.15;1.70;;;;;;;17.97;43.62;95011.22;4210250;28;20548;-57
2022/06/15 01:24:17;;;;;;;4.82;1.92;;;;;;;18.01;43.66;95009.81;4179713;28;20123;-54
2022/06/15 01:26:56;;;;;;;4.40;1.70;;;;;;;18.04;43.19;95013.06;4210434;28;20052;-57
2022/06/15 01:29:30;;;;;;;3.85;1.83;;;;;;;18.07;43.36;95013.50;4207888;28;20485;-58
2022/06/15 01:31:50;;;;;;;2.55;1.70;;;;;;;18.03;43.56;95017.56;4200621;28;20043;-58
2022/06/15 01:34:09;;;;;;;2.05;1.52;;;;;;;18.01;43.21;95015.09;4201625;28;20055;-55
2022/06/15 01:36:20;;;;;;;3.83;1.73;;;;;;;18.01;43.19;95007.16;4208231;28;20051;-54
2022/06/15 01:38:28;;;;;;;6.70;1.92;;;;;;;18.02;43.33;95010.63;4209027;28;20085;-56
2022/06/15 01:41:02;;;;;;;2.05;1.65;;;;;;;18.01;43.38;95009.81;4208358;28;20052;-55
2022/06/15 01:43:12;;;;;;;2.85;1.70;;;;;;;18.03;43.42;95014.09;4197028;28;20124;-55
2022/06/15 01:45:18;;;;;;;3.67;1.90;;;;;;;18.05;43.19;95015.53;4206993;28;20156;-56
2022/06/15 01:47:22;;;;;;;3.55;1.95;;;;;;;18.02;43.16;95018.56;4209135;28;20536;-55
2022/06/15 01:49:30;;;;;;;3.38;1.67;;;;;;;18.00;43.37;95016.13;4207144;28;20109;-57
2022/06/15 01:51:39;;;;;;;2.92;1.70;;;;;;;17.99;43.27;95014.50;4198466;28;20044;-57
2022/06/15 01:53:48;;;;;;;4.30;1.90;;;;;;;18.04;43.24;95023.69;4201006;28;20558;-57
2022/06/15 01:55:58;;;;;;;4.22;1.75;;;;;;;18.01;43.33;95017.75;4203633;28;20142;-57
2022/06/15 01:58:05;;;;;;;5.38;1.73;;;;;;;18.03;43.32;95022.06;4200790;28;20098;-55
2022/06/15 02:00:13;;;;;;;4.13;1.88;;;;;;;18.02;43.55;95018.56;4206413;28;20052;-57
2022/06/15 02:02:26;;;;;;;3.67;1.80;;;;;;;18.04;43.38;95015.72;4203091;28;20051;-55
2022/06/15 02:04:45;;;;;;;3.55;1.70;;;;;;;18.08;43.71;95020.44;4192733;28;20048;-56
2022/06/15 02:07:06;;;;;;;2.40;1.50;;;;;;;17.98;43.68;95027.94;4204065;28;20505;-56
2022/06/15 02:09:25;;;;;;;2.53;1.65;;;;;;;17.90;43.92;95020.16;4207612;28;20411;-56
2022/06/15 02:11:34;;;;;;;4.28;1.85;;;;;;;17.83;44.04;95017.44;4199174;28;20044;-55
2022/06/15 02:13:52;;;;;;;2.58;1.60;;;;;;;17.88;43.86;95028.31;4208972;28;20445;-57
2022/06/15 02:16:05;;;;;;;5.50;1.75;;;;;;;17.84;44.03;95023.59;4207149;28;20474;-57
2022/06/15 02:18:10;;;;;;;3.67;1.80;;;;;;;17.89;44.01;95027.28;4208354;28;20116;-63
2022/06/15 02:20:33;;;;;;;4.47;1.83;;;;;;;17.90;43.64;95028.13;4212435;28;20351;-55
2022/06/15 02:22:35;;;;;;;3.30;1.70;;;;;;;17.88;43.69;95025.66;4206303;28;20205;-56
2022/06/15 02:24:38;;;;;;;4.18;1.80;;;;;;;17.85;43.77;95026.03;4207637;28;20508;-57
2022/06/15 02:26:40;;;;;;;5.93;1.88;;;;;;;17.77;43.98;95024.34;4211229;28;20125;-56
2022/06/15 02:28:46;;;;;;;5.97;1.75;;;;;;;17.78;44.04;95020.66;4198198;28;20041;-57
2022/06/15 02:30:48;;;;;;;4.75;1.92;;;;;;;17.63;44.37;95019.97;4208088;28;20346;-55
2022/06/15 02:32:51;;;;;;;3.83;1.88;;;;;;;17.64;44.51;95021.63;4208350;28;20340;-57
2022/06/15 02:34:53;;;;;;;6.10;2.17;;;;;;;17.67;44.25;95017.75;4210702;28;20047;-54
2022/06/15 02:36:54;;;;;;;3.85;1.90;;;;;;;17.69;44.25;95021.84;4201482;28;20056;-57
2022/06/15 02:38:56;;;;;;;3.90;1.95;;;;;;;17.76;43.61;95021.88;4210725;28;20044;-54
2022/06/15 02:40:58;;;;;;;4.97;1.90;;;;;;;17.76;43.83;95020.03;4206231;28;20569;-56
2022/06/15 02:43:01;;;;;;;5.60;3.17;;;;;;;17.79;43.54;95016.22;4208751;28;20105;-55
2022/06/15 02:45:07;;;;;;;4.27;2.03;;;;;;;17.78;43.25;95017.19;4205550;28;20052;-54
2022/06/15 02:47:08;;;;;;;4.38;2.08;;;;;;;17.86;43.35;95017.06;4200772;28;20281;-54
2022/06/15 02:49:11;;;;;;;4.15;1.85;;;;;;;17.87;43.18;95024.00;4204507;28;20040;-55
2022/06/15 02:51:42;;;;;;;3.63;1.90;;;;;;;17.87;43.02;95028.50;4203522;28;20109;-55
2022/06/15 02:53:45;;;;;;;6.93;1.90;;;;;;;17.88;43.11;95024.84;4199293;28;20052;-56
2022/06/15 02:55:48;;;;;;;4.30;2.30;;;;;;;17.84;42.94;95024.41;4205116;28;20596;-55
2022/06/15 02:57:54;;;;;;;5.60;2.00;;;;;;;17.89;43.00;95016.66;4215475;28;20044;-55
2022/06/15 02:59:56;;;;;;;6.72;2.30;;;;;;;17.92;42.94;95018.94;4199782;28;20153;-54
2022/06/15 03:01:58;;;;;;;5.90;2.50;;;;;;;17.90;42.91;95013.03;4209914;28;20101;-53
2022/06/15 03:03:59;;;;;;;3.85;1.60;;;;;;;17.92;42.98;95016.28;4204949;28;20119;-52
2022/06/15 03:06:01;;;;;;;3.20;2.00;;;;;;;17.94;43.28;95013.44;4198137;28;20056;-55
2022/06/15 03:08:03;;;;;;;5.03;2.13;;;;;;;17.97;43.09;95019.16;4199991;28;20056;-53
2022/06/15 03:10:06;;;;;;;3.08;1.80;;;;;;;17.97;43.35;95011.22;4207248;28;20398;-56
2022/06/15 03:12:08;;;;;;;5.47;1.70;;;;;;;18.00;43.45;95008.19;4210615;28;20711;-56
2022/06/15 03:14:09;;;;;;;4.82;2.00;;;;;;;18.03;43.38;95019.41;4206407;28;20124;-54
2022/06/15 03:16:11;;;;;;;4.68;2.20;;;;;;;17.98;43.58;95010.22;4213386;28;20051;-54
2022/06/15 03:18:13;;;;;;;2.67;1.70;;;;;;;17.91;43.60;95014.66;4213088;28;20090;-56
2022/06/15 03:20:15;;;;;;;3.38;1.83;;;;;;;17.92;43.67;95012.84;4208709;28;20048;-54
2022/06/15 03:22:16;;;;;;;5.05;2.45;;;;;;;17.90;43.68;95009.56;4210058;28;20106;-55
2022/06/15 03:24:20;;;;;;;5.15;1.92;;;;;;;17.96;43.59;95008.75;4199451;28;20256;-55
2022/06/15 03:26:22;;;;;;;2.50;1.50;;;;;;;17.98;43.43;95010.22;4206857;28;20055;-58
2022/06/15 03:28:23;;;;;;;3.45;2.08;;;;;;;17.98;43.53;95014.66;4208086;28;20845;-54
2022/06/15 03:30:25;;;;;;;5.10;2.03;;;;;;;17.88;43.70;95009.75;4206323;28;20386;-55
2022/06/15 03:32:27;;;;;;;4.65;1.80;;;;;;;17.87;43.63;95024.00;4199001;28;20066;-55
2022/06/15 03:34:29;;;;;;;8.10;1.90;;;;;;;17.94;43.53;95018.72;4213308;28;20051;-54
2022/06/15 03:36:31;;;;;;;2.78;2.05;;;;;;;18.03;43.39;95016.75;4211159;28;20111;-54
2022/06/15 03:38:32;;;;;;;9.50;2.20;;;;;;;18.05;43.19;95023.50;4214447;28;20397;-55
2022/06/15 03:40:36;;;;;;;8.45;2.20;;;;;;;18.02;43.48;95023.88;4207717;28;20463;-54
2022/06/15 03:42:40;;;;;;;6.97;2.03;;;;;;;18.01;43.50;95020.41;4194372;28;20132;-53
2022/06/15 03:44:42;;;;;;;4.50;1.98;;;;;;;18.01;43.41;95020.41;4201638;28;20048;-56
2022/06/15 03:46:44;;;;;;;3.53;1.70;;;;;;;18.10;43.41;95029.00;4208784;28;20060;-58
2022/06/15 03:48:47;;;;;;;;;;;;;;;18.14;43.55;95032.09;4216687;28;20142;-52
2022/06/15 03:50:49;;;;;;;6.07;1.92;;;;;;;18.15;43.28;95036.38;4208227;28;19997;-52
2022/06/15 03:52:51;;;;;;;3.83;1.73;;;;;;;18.19;43.65;95034.97;4208378;28;20113;-54
2022/06/15 03:54:59;;;;;;;4.25;1.88;;;;;;;18.20;43.48;95026.00;4207889;28;20139;-55
2022/06/15 03:57:01;;;;;;;3.30;1.60;;;;;;;18.24;43.36;95032.56;4207928;28;20116;-54
2022/06/15 03:59:02;;;;;;;4.97;1.98;;;;;;;18.27;43.69;95034.78;4206560;28;20060;-56
2022/06/15 04:01:04;;;;;;;7.50;2.83;;;;;;;18.21;43.43;95036.38;4216541;28;20052;-54
2022/06/15 04:03:06;;;;;;;4.72;1.90;;;;;;;18.27;43.61;95028.69;4208275;28;20083;-53
2022/06/15 04:05:14;;;;;;;8.65;2.17;;;;;;;18.25;43.44;95031.53;4204952;28;20050;-53
2022/06/15 04:09:36;;;;;;;7.00;2.30;;;;;;;18.50;43.73;95037.13;4208050;28;20052;-54
2022/06/15 04:13:59;;;;;;;3.30;1.90;;;;;;;18.62;43.32;95032.03;4216818;28;20058;-52
2022/06/15 04:16:04;;;;;;;5.28;1.77;;;;;;;18.73;43.20;95035.94;4219418;28;20043;-54
2022/06/15 04:18:06;;;;;;;3.85;2.00;;;;;;;18.80;42.93;95029.66;4205913;28;20603;-54
2022/06/15 04:20:32;;;;;;;4.95;2.17;;;;;;;18.70;43.14;95031.84;4208151;28;20481;-54
2022/06/15 04:22:34;;;;;;;3.45;2.00;;;;;;;18.69;43.69;95038.19;4207211;28;20610;-57
2022/06/15 04:24:39;;;;;;;4.22;2.00;;;;;;;18.74;43.48;95041.06;4211134;28;20066;-54
2022/06/15 04:26:41;;;;;;;4.32;1.92;;;;;;;18.73;42.97;95034.09;4211693;28;20086;-51
2022/06/15 04:28:44;;;;;;;4.28;1.80;;;;;;;18.76;43.01;95040.84;4209746;28;20052;-51
2022/06/15 04:30:46;;;;;;;7.30;2.20;;;;;;;18.82;43.54;95038.25;4210915;28;20116;-51
2022/06/15 04:32:48;;;;;;;9.23;2.20;;;;;;;18.89;43.28;95037.44;4212480;28;20113;-51
2022/06/15 04:34:54;;;;;;;7.60;2.40;;;;;;;18.96;44.25;95044.38;4206817;28;20048;-51
2022/06/15 04:36:56;;;;;;;7.50;2.85;;;;;;;18.94;45.91;95045.59;4201217;28;20122;-53
2022/06/15 04:38:58;;;;;;;8.15;2.75;;;;;;;18.49;46.98;95050.56;4211040;28;20120;-52
2022/06/15 04:41:02;;;;;;;12.85;3.00;;;;;;;17.99;49.13;95048.13;4209818;28;20044;-50
2022/06/15 04:43:06;;;;;;;7.25;3.00;;;;;;;17.99;48.79;95053.44;4211361;28;20056;-50
2022/06/15 04:45:08;;;;;;;;;;;;;;;18.00;50.03;95049.75;4210365;28;20486;-53
2022/06/15 04:47:10;;;;;;;7.13;2.95;;;;;;;17.66;51.27;95058.50;4210671;28;20341;-50
2022/06/15 04:49:13;;;;;;;9.30;2.83;;;;;;;17.54;51.28;95045.78;4198630;28;20048;-53
2022/06/15 04:51:22;;;;;;;5.63;2.63;;;;;;;17.63;50.97;95045.66;4212902;28;20520;-51
2022/06/15 04:53:24;;;;;;;4.35;2.60;;;;;;;17.79;50.22;95045.34;4202983;28;20048;-55
2022/06/15 04:55:25;;;;;;;10.45;2.72;;;;;;;17.76;49.85;95053.69;4206253;28;20128;-51
2022/06/15 04:57:27;;;;;;;11.20;3.05;;;;;;;17.82;50.17;95050.28;4225239;28;20487;-52
2022/06/15 04:59:29;;;;;;;6.68;2.45;;;;;;;18.03;49.16;95049.38;4197377;28;20056;-51
2022/06/15 05:01:30;;;;;;;4.68;2.63;;;;;;;18.08;48.56;95059.38;4221426;28;20048;-50
2022/06/15 05:03:33;;;;;;;7.10;2.78;;;;;;;18.22;47.91;95045.19;4215585;28;20100;-47
2022/06/15 05:05:36;;;;;;;11.07;3.28;;;;;;;18.08;50.43;95054.09;4211034;28;20048;-51
2022/06/15 05:07:38;;;;;;;5.80;2.55;;;;;;;17.86;50.50;95059.47;4199489;28;20053;-50
2022/06/15 05:09:40;;;;;;;9.40;3.13;;;;;;;17.87;50.93;95055.00;4220747;28;20051;-53
2022/06/15 05:11:42;;;;;;;10.18;3.33;;;;;;;17.95;50.81;95058.31;4209916;28;20113;-49
2022/06/15 05:13:44;;;;;;;4.22;2.55;;;;;;;18.19;49.51;95069.44;4210885;28;20095;-52
2022/06/15 05:15:46;;;;;;;7.40;2.58;;;;;;;18.35;47.09;95058.50;4209760;28;20052;-50
2022/06/15 05:17:48;;;;;;;3.83;2.47;;;;;;;18.49;46.92;95064.66;4210599;28;20055;-48
2022/06/15 05:19:49;;;;;;;6.38;3.10;;;;;;;18.72;45.80;95072.28;4211177;28;20493;-53
2022/06/15 05:21:51;;;;;;;6.63;2.22;;;;;;;18.64;45.06;95077.75;4210646;28;20052;-47
2022/06/15 05:23:53;;;;;;;6.30;2.35;;;;;;;18.76;44.33;95065.56;4199872;28;20052;-52
2022/06/15 05:25:58;;;;;;;3.50;2.33;;;;;;;18.92;45.29;95076.84;4210001;28;20059;-48
2022/06/15 05:28:00;;;;;;;7.25;2.83;;;;;;;18.54;48.12;95079.97;4210553;28;20503;-51
2022/06/15 05:30:04;;;;;;;7.13;2.33;;;;;;;18.44;45.58;95072.41;4199382;28;20064;-51
2022/06/15 05:32:07;;;;;;;5.53;2.63;;;;;;;18.42;45.90;95074.44;4208144;28;20086;-53
2022/06/15 05:34:09;;;;;;;12.50;2.80;;;;;;;18.69;45.36;95075.34;4208745;28;20056;-51
2022/06/15 05:36:14;;;;;;;9.43;2.40;;;;;;;18.89;45.03;95072.75;4199964;28;20101;-51
2022/06/15 05:38:16;;;;;;;3.25;1.98;;;;;;;19.16;44.43;95078.09;4206506;28;20985;-50
2022/06/15 05:40:18;;;;;;;6.85;2.38;;;;;;;19.15;43.37;95079.94;4199499;28;20546;-49
2022/06/15 05:42:19;;;;;;;9.63;2.25;;;;;;;19.12;43.30;95080.34;4207375;28;20074;-51
2022/06/15 05:46:30;;;;;;;5.15;2.17;;;;;;;19.37;42.94;95077.91;4208792;28;20052;-54
2022/06/15 05:48:32;;;;;;;6.82;2.30;;;;;;;19.52;43.16;95077.69;4210271;28;20048;-52
2022/06/15 05:50:34;;;;;;;7.57;2.60;;;;;;;19.36;43.50;95084.25;4207606;28;20056;-54
2022/06/15 05:52:35;;;;;;;4.43;2.17;;;;;;;19.30;42.92;95081.59;4208298;28;20093;-52
2022/06/15 05:54:38;;;;;;;4.30;2.40;;;;;;;19.34;42.64;95082.81;4209467;28;20048;-54
2022/06/15 05:56:39;;;;;;;3.85;1.85;;;;;;;19.23;42.42;95082.41;4210104;28;20093;-49
2022/06/15 05:58:41;;;;;;;5.30;2.05;;;;;;;19.32;42.56;95075.06;4208011;28;20109;-52
2022/06/15 06:00:43;;;;;;;3.70;2.17;;;;;;;19.24;42.78;95084.03;4202741;28;20064;-49
2022/06/15 06:02:45;;;;;;;5.20;2.08;;;;;;;19.32;42.70;95090.19;4209797;28;20044;-51
2022/06/15 06:04:47;;;;;;;4.18;2.03;;;;;;;19.47;42.90;95100.56;4208077;28;20143;-50
2022/06/15 06:06:51;;;;;;;5.00;2.20;;;;;;;19.42;42.85;95093.22;4209437;28;20423;-46
2022/06/15 06:08:53;;;;;;;4.43;2.40;;;;;;;19.44;42.66;95089.38;4211923;28;20048;-50
2022/06/15 06:10:55;;;;;;;7.63;2.17;;;;;;;19.51;42.94;95093.84;4212849;28;20101;-53
2022/06/15 06:12:57;;;;;;;8.88;3.05;;;;;;;19.54;43.27;95090.78;4221216;28;20485;-50
2022/06/15 06:14:58;;;;;;;7.15;2.70;;;;;;;19.54;43.40;95096.09;4208538;28;20127;-50
2022/06/15 06:17:00;;;;;;;5.40;2.58;;;;;;;19.30;43.22;95092.22;4205276;28;20052;-51
2022/06/15 06:19:02;;;;;;;6.30;2.28;;;;;;;19.06;43.84;95101.56;4196601;28;20044;-50
2022/06/15 06:21:05;;;;;;;9.73;3.03;;;;;;;19.12;44.45;95098.09;4219802;28;20453;-49
2022/06/15 06:23:07;;;;;;;6.15;2.47;;;;;;;19.28;44.12;95104.88;4225358;28;20109;-48
2022/06/15 06:25:10;;;;;;;4.38;2.38;;;;;;;19.46;43.09;95107.75;4209060;28;20122;-47
2022/06/15 06:27:13;;;;;;;5.25;2.28;;;;;;;19.53;43.47;95107.75;4207725;28;20121;-53
2022/06/15 06:29:16;;;;;;;4.38;2.30;;;;;;;19.61;43.24;95105.69;4216844;28;20067;-51
2022/06/15 06:31:21;;;;;;;13.90;2.97;;;;;;;19.61;43.55;95105.69;4208140;28;20875;-52
2022/06/15 06:33:27;;;;;;;7.72;2.45;;;;;;;19.62;43.20;95095.91;4210787;28;20520;-47
2022/06/15 06:35:28;;;;;;;8.93;2.40;;;;;;;19.19;43.04;95102.41;4203254;28;20143;-53
2022/06/15 06:37:33;;;;;;;5.68;2.60;;;;;;;19.31;43.64;95101.81;4214759;28;20105;-47
2022/06/15 06:39:35;;;;;;;4.15;2.20;;;;;;;19.10;43.82;95106.28;4220687;28;20070;-48
2022/06/15 06:41:37;;;;;;;4.53;2.33;;;;;;;19.11;44.15;95099.94;4218226;28;20057;-52
2022/06/15 06:43:39;;;;;;;4.25;2.35;;;;;;;19.34;43.26;95090.78;4209625;28;20055;-51
2022/06/15 06:45:42;;;;;;;4.68;2.20;;;;;;;19.27;43.86;95105.88;4206453;28;20474;-51
2022/06/15 06:47:44;;;;;;;7.55;2.78;;;;;;;19.47;43.87;95096.09;4195072;28;20052;-46
2022/06/15 06:49:46;;;;;;;6.82;2.47;;;;;;;19.40;43.36;95093.44;4203566;28;20079;-50
2022/06/15 06:51:47;;;;;;;3.67;2.03;;;;;;;19.60;43.00;95103.25;4201246;28;20121;-46
2022/06/15 06:53:49;;;;;;;4.45;2.40;;;;;;;19.64;42.87;95091.19;4208577;28;20044;-51
2022/06/15 06:55:51;;;;;;;6.03;2.67;;;;;;;19.68;43.34;95088.94;4208432;28;20059;-52
2022/06/15 06:57:54;;;;;;;6.85;2.67;;;;;;;19.56;43.35;95099.38;4209903;28;20056;-47
2022/06/15 06:59:56;;;;;;;4.97;2.40;;;;;;;19.66;43.59;95097.13;4207342;28;20055;-50
2022/06/15 07:01:57;;;;;;;4.50;2.15;;;;;;;19.92;43.33;95091.00;4223327;28;20056;-53
2022/06/15 07:03:59;;;;;;;3.15;1.90;;;;;;;20.08;43.08;95096.88;4206366;28;20454;-50
2022/06/15 07:06:04;;;;;;;6.82;2.50;;;;;;;20.05;43.98;95095.47;4196957;28;20060;-49
2022/06/15 07:08:06;;;;;;;5.70;2.95;;;;;;;19.89;44.51;95101.22;4204614;28;20063;-51
2022/06/15 07:10:08;;;;;;;7.97;2.63;;;;;;;19.50;45.29;95108.16;4199167;28;20145;-49
2022/06/15 07:12:10;;;;;;;38.70;9.82;;;;;;;19.20;45.54;95103.22;4219886;28;20054;-48
2022/06/15 07:14:12;;;;;;;9.43;3.25;;;;;;;19.24;46.47;95105.28;4206247;28;20056;-52
2022/06/15 07:16:17;;;;;;;6.25;2.78;;;;;;;19.47;45.87;95093.44;4195770;28;20051;-50
2022/06/15 07:18:20;;;;;;;5.68;2.47;;;;;;;19.81;45.46;95104.88;4208930;28;20431;-52
2022/06/15 07:20:21;;;;;;;4.25;2.10;;;;;;;20.00;43.76;95100.56;4198031;28;20493;-52
2022/06/15 07:22:23;;;;;;;13.32;4.07;;;;;;;20.02;43.99;95095.84;4191665;28;20439;-50
2022/06/15 07:24:29;;;;;;;12.18;4.88;;;;;;;20.06;43.95;95094.41;4192744;28;20618;-50
2022/06/15 07:26:34;;;;;;;4.38;2.83;;;;;;;19.59;44.30;95105.06;4197049;28;20052;-46
2022/06/15 07:28:37;;;;;;;6.38;3.88;;;;;;;19.73;45.19;95100.63;4216131;28;20085;-51
2022/06/15 07:30:38;;;;;;;8.90;3.88;;;;;;;19.78;45.04;95100.81;4200382;28;20185;-52
2022/06/15 07:32:41;;;;;;;7.13;2.75;;;;;;;19.97;44.93;95101.00;4205646;28;20056;-51
2022/06/15 07:34:43;;;;;;;3.67;2.57;;;;;;;20.22;44.50;95109.94;4208609;28;20067;-52
2022/06/15 07:36:48;;;;;;;10.60;3.35;;;;;;;20.17;44.28;95107.06;4197931;28;20121;-47
2022/06/15 07:38:54;;;;;;;9.07;3.83;;;;;;;20.35;44.56;95094.94;4208005;28;20091;-49
2022/06/15 07:40:58;;;;;;;6.07;2.83;;;;;;;20.11;44.26;95104.44;4200854;28;20052;-51
2022/06/15 07:42:59;;;;;;;5.55;2.17;;;;;;;19.81;44.60;95104.88;4209766;28;20094;-52
2022/06/15 07:45:01;;;;;;;6.55;2.50;;;;;;;19.97;44.69;95101.81;4206938;28;20047;-51
2022/06/15 07:52:01;;;;;;;4.65;2.38;;;;;;;19.74;44.66;95114.72;4200302;28;20059;-50
2022/06/15 07:54:04;;;;;;;3.95;2.50;;;;;;;19.78;45.34;95108.78;4212420;28;20085;-48
2022/06/15 07:56:06;;;;;;;7.95;2.35;;;;;;;19.55;45.51;95118.97;4211267;28;20102;-52
2022/06/15 07:58:09;;;;;;;5.30;2.58;;;;;;;19.93;44.40;95105.09;4204890;28;20500;-52
2022/06/15 08:00:13;;;;;;;6.43;2.50;;;;;;;20.24;43.49;95104.38;4207081;28;20051;-51
2022/06/15 08:02:16;;;;;;;8.80;2.55;;;;;;;20.42;43.14;95096.56;4208620;28;20419;-51
2022/06/15 08:04:18;;;;;;;5.43;2.53;;;;;;;20.57;43.19;95099.00;4208103;28;20082;-50
2022/06/15 08:06:19;;;;;;;4.95;2.45;;;;;;;20.47;43.02;95101.25;4204366;28;20071;-48
2022/06/15 08:08:24;;;;;;;10.63;2.25;;;;;;;20.50;42.23;95108.00;4204448;28;20060;-51
2022/06/15 08:10:26;;;;;;;6.00;1.95;;;;;;;20.73;42.51;95105.66;4204675;28;20097;-47
2022/06/15 08:12:28;;;;;;;3.15;1.90;;;;;;;20.72;42.74;95097.91;4208096;28;20052;-51
2022/06/15 08:14:32;;;;;;;7.90;2.20;;;;;;;20.94;41.60;95101.06;4203359;28;20044;-52
2022/06/15 08:16:34;;;;;;;13.45;2.85;;;;;;;20.84;41.97;95104.19;4204395;28;20048;-50
2022/06/15 08:18:41;;;;;;;7.25;2.30;;;;;;;21.04;41.52;95099.56;4206384;28;20052;-51
2022/06/15 08:20:57;;;;;;;5.70;2.45;;;;;;;21.07;41.78;95103.66;4215083;28;20416;-49
2022/06/15 08:23:07;;;;;;;4.15;1.88;;;;;;;21.31;40.71;95101.25;4201548;28;20052;-54
2022/06/15 08:25:13;;;;;;;3.13;1.92;;;;;;;21.44;41.06;95101.16;4202630;28;20056;-48
2022/06/15 08:27:18;;;;;;;4.65;1.83;;;;;;;21.56;40.23;95103.97;4207721;28;20043;-51
2022/06/15 08:29:20;;;;;;;6.05;2.10;;;;;;;21.50;41.93;95105.63;4209898;28;20466;-53
2022/06/15 08:31:23;;;;;;;4.47;2.10;;;;;;;21.54;42.10;95112.19;4192352;28;20060;-49
2022/06/15 08:33:25;;;;;;;6.03;2.17;;;;;;;21.75;40.92;95110.19;4207719;28;20102;-49
2022/06/15 08:35:26;;;;;;;3.47;1.83;;;;;;;21.94;40.78;95105.66;4202196;28;20052;-47
2022/06/15 08:37:29;;;;;;;5.97;2.13;;;;;;;22.08;40.70;95102.66;4202388;28;20056;-53
2022/06/15 08:39:30;;;;;;;3.85;2.00;;;;;;;21.52;40.43;95118.75;4207972;28;20271;-53
2022/06/15 08:41:42;;;;;;;5.07;2.00;;;;;;;21.18;41.67;95110.94;4210624;28;20481;-51
2022/06/15 08:43:43;;;;;;;4.95;2.28;;;;;;;21.24;42.59;95104.78;4202357;28;20052;-48
2022/06/15 08:45:49;;;;;;;8.68;2.47;;;;;;;21.25;41.67;95122.41;4196845;28;20040;-48
2022/06/15 08:48:09;;;;;;;3.90;1.85;;;;;;;21.02;40.99;95108.81;4206682;28;20169;-47
2022/06/15 08:50:32;;;;;;;8.45;2.47;;;;;;;21.16;39.89;95098.88;4196628;28;20106;-53
2022/06/15 08:52:43;;;;;;;5.88;2.05;;;;;;;20.99;39.69;95110.06;4210740;28;20043;-50
2022/06/15 08:55:19;;;;;;;5.50;2.10;;;;;;;20.85;40.67;95119.97;4206706;28;20044;-54
2022/06/15 08:57:34;;;;;;;6.13;1.90;;;;;;;21.01;40.73;95109.84;4189366;28;20044;-51
2022/06/15 08:59:46;;;;;;;4.20;1.75;;;;;;;21.31;38.07;95098.56;4202473;28;20056;-51
2022/06/15 09:01:51;;;;;;;3.28;1.60;;;;;;;21.64;37.67;95114.38;4202942;28;20519;-51
2022/06/15 09:03:59;;;;;;;3.65;1.73;;;;;;;21.84;37.48;95116.84;4206991;28;20044;-52
2022/06/15 09:06:56;;;;;;;2.97;1.73;;;;;;;21.97;37.76;95107.91;4207549;28;20494;-50
2022/06/15 09:09:15;;;;;;;4.70;1.95;;;;;;;22.03;38.04;95117.72;4156017;28;20136;-51
2022/06/15 09:11:29;;;;;;;6.30;2.08;;;;;;;21.43;38.23;95112.88;4192056;28;20060;-52
2022/06/15 09:13:43;;;;;;;3.35;2.05;;;;;;;21.74;37.33;95113.84;4215544;28;20055;-51
2022/06/15 09:16:06;;;;;;;4.05;2.08;;;;;;;21.85;37.08;95103.31;4208458;28;20044;-51
2022/06/15 09:18:31;;;;;;;5.28;2.00;;;;;;;22.08;37.06;95123.19;4200754;28;20125;-50
2022/06/15 09:21:00;;;;;;;4.45;1.63;;;;;;;22.16;37.28;95098.09;4210422;28;20124;-51
2022/06/15 09:23:09;;;;;;;5.50;1.90;;;;;;;22.50;38.02;95102.03;4202258;28;20051;-49
2022/06/15 09:25:21;;;;;;;5.03;1.65;;;;;;;22.77;38.14;95097.19;4201284;28;20059;-53
2022/06/15 09:27:25;;;;;;;3.30;2.00;;;;;;;22.92;37.84;95104.78;4210534;28;20105;-48
2022/06/15 09:29:35;;;;;;;4.13;1.60;;;;;;;22.84;37.11;95108.59;4209258;28;20056;-48
2022/06/15 09:32:07;;;;;;;2.83;1.60;;;;;;;22.62;36.67;95102.91;4210402;28;20484;-50
2022/06/15 09:34:14;;;;;;;3.47;1.83;;;;;;;22.56;37.34;95105.66;4210342;28;20051;-51
2022/06/15 09:36:20;;;;;;;6.80;2.65;;;;;;;22.60;37.54;95109.50;4197784;28;20110;-50
2022/06/15 09:38:22;;;;;;;4.20;2.20;;;;;;;22.30;37.08;95107.59;4210552;28;20056;-49
2022/06/15 09:40:38;;;;;;;3.67;1.90;;;;;;;22.61;37.77;95103.97;4208811;28;20133;-50
2022/06/15 09:42:49;;;;;;;5.55;2.10;;;;;;;22.58;39.07;95107.06;4217793;28;20462;-48
2022/06/15 09:45:29;;;;;;;6.00;1.80;;;;;;;22.81;36.88;95106.38;4204405;28;20255;-53
2022/06/15 09:48:00;;;;;;;3.42;1.60;;;;;;;22.94;36.73;95096.56;4207098;28;20097;-53
2022/06/15 09:50:08;;;;;;;3.88;1.55;;;;;;;23.18;36.91;95084.13;4204385;28;20052;-49
2022/06/15 09:52:25;;;;;;;5.18;2.00;;;;;;;23.05;35.79;95093.13;4214942;28;20071;-51
2022/06/15 09:54:41;;;;;;;2.65;1.73;;;;;;;23.08;37.06;95087.31;4198013;28;20040;-52
2022/06/15 09:56:43;;;;;;;6.32;1.92;;;;;;;23.27;36.58;95091.59;4196990;28;20052;-51
2022/06/15 09:58:57;;;;;;;6.03;2.17;;;;;;;23.50;36.56;95084.66;4206039;28;20277;-50
2022/06/15 10:00:59;;;;;;;3.88;2.28;;;;;;;23.68;36.39;95089.09;4206675;28;20523;-51
2022/06/15 10:03:05;;;;;;;4.25;1.83;;;;;;;23.91;36.48;95080.28;4209791;28;20136;-45
2022/06/15 10:05:25;;;;;;;6.18;2.25;;;;;;;23.79;36.00;95088.34;4215106;28;20415;-48
2022/06/15 10:07:33;;;;;;;5.78;2.35;;;;;;;23.45;36.30;95081.88;4214160;28;20362;-52